createdAt,value
2019-02-06T00:01:32.028Z,23.07
2019-02-06T00:07:36.425Z,19.57
2019-02-06T00:13:40.924Z,15.97
2019-02-06T00:19:47.447Z,14.47
2019-02-06T00:25:51.853Z,23.07
2019-02-06T00:31:57.665Z,24.32
2019-02-06T00:38:04.978Z,23.10
2019-02-06T00:44:07.919Z,22.58
2019-02-06T00:50:13.372Z,24.30
2019-02-06T00:56:17.661Z,23.33
2019-02-06T01:02:22.223Z,23.73
2019-02-06T01:08:26.427Z,21.48
2019-02-06T01:14:30.805Z,24.75
2019-02-06T01:20:35.271Z,27.43
2019-02-06T01:26:39.549Z,24.63
2019-02-06T01:32:43.997Z,25.32
2019-02-06T01:38:48.634Z,23.00
2019-02-06T01:44:52.850Z,21.83
2019-02-06T01:50:57.197Z,25.70
2019-02-06T01:57:01.494Z,25.47
2019-02-06T02:03:06.126Z,27.57
2019-02-06T02:09:19.769Z,25.13
2019-02-06T02:15:24.050Z,23.87
2019-02-06T02:21:28.862Z,22.30
2019-02-06T02:27:33.158Z,21.15
2019-02-06T02:33:37.447Z,21.45
2019-02-06T02:39:41.995Z,20.47
2019-02-06T02:45:46.267Z,18.77
2019-02-06T02:51:50.634Z,21.95
2019-02-06T02:57:54.943Z,22.23
2019-02-06T03:04:10.045Z,18.45
2019-02-06T03:10:14.421Z,16.67
2019-02-06T03:16:18.692Z,14.68
2019-02-06T03:22:23.328Z,14.38
2019-02-06T03:28:27.586Z,15.03
2019-02-06T03:34:31.895Z,13.20
2019-02-06T03:40:36.102Z,12.05
2019-02-06T03:46:40.411Z,11.57
2019-02-06T03:52:44.629Z,11.43
2019-02-06T03:58:48.948Z,10.95
2019-02-06T04:04:53.177Z,11.45
2019-02-06T04:10:57.443Z,10.38
2019-02-06T04:17:01.714Z,13.95
2019-02-06T04:23:06.027Z,13.50
2019-02-06T04:29:10.765Z,14.80
2019-02-06T04:35:15.582Z,15.13
2019-02-06T04:41:19.931Z,18.32
2019-02-06T04:47:24.226Z,16.55
2019-02-06T04:53:28.574Z,16.30
2019-02-06T04:59:32.866Z,14.47
2019-02-06T05:05:37.223Z,16.80
2019-02-06T05:11:43.195Z,11.48
2019-02-06T05:17:47.456Z,13.53
2019-02-06T05:23:51.870Z,16.30
2019-02-06T05:29:56.174Z,10.98
2019-02-06T05:36:00.744Z,12.63
2019-02-06T05:42:05.104Z,17.62
2019-02-06T05:48:09.323Z,16.67
2019-02-06T05:54:13.660Z,17.50
2019-02-06T06:00:22.600Z,16.70
2019-02-06T06:06:27.038Z,15.23
2019-02-06T06:12:31.323Z,12.28
2019-02-06T06:18:36.054Z,14.85
2019-02-06T06:24:43.323Z,16.35
2019-02-06T06:30:47.656Z,19.98
2019-02-06T06:36:51.939Z,19.60
2019-02-06T06:42:56.634Z,15.90
2019-02-06T06:49:00.877Z,16.50
2019-02-06T06:55:05.490Z,10.85
2019-02-06T07:01:10.954Z,18.77
2019-02-06T07:07:15.702Z,14.53
2019-02-06T07:13:20.062Z,18.48
2019-02-06T07:19:24.289Z,15.85
2019-02-06T07:25:28.911Z,14.55
2019-02-06T07:31:33.188Z,16.52
2019-02-06T07:37:37.605Z,14.95
2019-02-06T07:43:41.967Z,13.13
2019-02-06T07:49:46.292Z,16.65
2019-02-06T07:55:50.894Z,16.82
2019-02-06T08:01:55.192Z,11.90
2019-02-06T08:07:59.528Z,18.77
2019-02-06T08:14:03.902Z,17.05
2019-02-06T08:20:10.054Z,21.17
2019-02-06T08:26:14.374Z,11.85
2019-02-06T08:32:18.663Z,17.55
2019-02-06T08:38:22.920Z,17.87
2019-02-06T08:44:27.267Z,18.30
2019-02-06T08:50:31.466Z,15.93
2019-02-06T08:56:35.857Z,13.70
2019-02-06T09:02:40.220Z,17.62
2019-02-06T09:08:44.501Z,17.67
2019-02-06T09:14:49.074Z,15.13
2019-02-06T09:20:53.384Z,12.60
2019-02-06T09:26:57.708Z,15.43
2019-02-06T09:33:02.422Z,13.22
2019-02-06T09:39:11.570Z,13.58
2019-02-06T09:45:16.367Z,12.18
2019-02-06T09:51:20.594Z,16.60
2019-02-06T09:57:25.288Z,14.55
2019-02-06T10:03:29.575Z,16.55
2019-02-06T10:09:35.930Z,13.83
2019-02-06T10:15:40.597Z,15.00
2019-02-06T10:21:44.858Z,13.53
2019-02-06T10:27:49.173Z,13.18
2019-02-06T10:33:53.653Z,14.85
2019-02-06T10:39:58.688Z,20.23
2019-02-06T10:46:03.144Z,13.35
2019-02-06T10:52:07.460Z,16.55
2019-02-06T10:58:11.845Z,13.30
2019-02-06T11:04:16.185Z,13.43
2019-02-06T11:10:21.526Z,14.78
2019-02-06T11:16:26.022Z,15.43
2019-02-06T11:22:30.401Z,17.07
2019-02-06T11:28:34.714Z,16.15
2019-02-06T11:34:39.031Z,15.70
2019-02-06T11:40:43.414Z,15.83
2019-02-06T11:46:48.101Z,16.12
2019-02-06T11:52:52.565Z,14.73
2019-02-06T11:58:56.855Z,10.75
2019-02-06T12:05:01.539Z,12.13
2019-02-06T12:11:07.356Z,12.10
2019-02-06T12:17:11.581Z,12.35
2019-02-06T12:23:15.778Z,15.58
2019-02-06T12:29:20.541Z,16.17
2019-02-06T12:35:24.850Z,15.20
2019-02-06T12:41:29.207Z,14.38
2019-02-06T12:47:36.623Z,14.65
2019-02-06T12:53:40.948Z,15.70
2019-02-06T12:59:45.231Z,12.82
2019-02-06T13:05:49.606Z,15.53
2019-02-06T13:11:53.943Z,17.32
2019-02-06T13:17:58.676Z,15.85
2019-02-06T13:24:02.906Z,14.33
2019-02-06T13:30:10.654Z,13.40
2019-02-06T13:36:14.938Z,14.58
2019-02-06T13:42:19.309Z,16.75
2019-02-06T13:48:23.612Z,22.10
2019-02-06T13:54:28.001Z,15.32
2019-02-06T14:00:35.445Z,15.23
2019-02-06T14:06:39.807Z,15.25
2019-02-06T14:12:44.230Z,16.15
2019-02-06T14:18:48.543Z,15.05
2019-02-06T14:24:57.219Z,11.53
2019-02-06T14:31:33.920Z,13.88
2019-02-06T14:38:19.980Z,17.00
2019-02-06T14:45:18.805Z,16.45
2019-02-06T14:51:48.830Z,14.73
2019-02-06T14:58:26.646Z,11.15
2019-02-06T15:05:03.887Z,16.30
2019-02-06T15:12:13.349Z,15.32
2019-02-06T15:19:07.823Z,15.90
2019-02-06T15:25:57.432Z,17.17
2019-02-06T15:32:39.273Z,19.30
2019-02-06T15:39:45.711Z,17.40
2019-02-06T15:46:09.749Z,16.70
2019-02-06T15:52:54.716Z,15.43
2019-02-06T15:59:45.190Z,16.93
2019-02-06T16:06:37.783Z,14.98
2019-02-06T16:13:23.089Z,17.60
2019-02-06T16:20:07.474Z,15.18
2019-02-06T16:26:57.586Z,17.92
2019-02-06T16:33:45.018Z,18.17
2019-02-06T16:40:19.776Z,19.85
2019-02-06T16:46:52.972Z,19.23
2019-02-06T16:53:20.583Z,20.60
2019-02-06T16:59:51.792Z,18.92
2019-02-06T17:06:19.177Z,20.43
2019-02-06T17:13:01.703Z,16.80
2019-02-06T17:19:52.081Z,21.68
2019-02-06T17:26:32.586Z,18.87
2019-02-06T17:33:20.743Z,15.72
2019-02-06T17:39:52.886Z,17.60
2019-02-06T17:46:40.134Z,17.27
2019-02-06T17:53:09.391Z,20.05
2019-02-06T17:59:13.760Z,16.35
2019-02-06T18:05:18.200Z,18.60
2019-02-06T18:11:22.489Z,19.27
2019-02-06T18:17:27.022Z,18.50
2019-02-06T18:23:31.343Z,19.92
2019-02-06T18:29:35.612Z,18.52
2019-02-06T18:35:43.398Z,20.37
2019-02-06T18:41:48.071Z,22.55
2019-02-06T18:47:56.897Z,23.92
2019-02-06T18:54:01.221Z,26.05
2019-02-06T19:00:10.060Z,23.90
2019-02-06T19:06:14.633Z,27.73
2019-02-06T19:12:19.010Z,29.65
2019-02-06T19:18:23.394Z,26.95
2019-02-06T19:24:28.699Z,26.87
2019-02-06T19:30:34.867Z,27.20
2019-02-06T19:36:39.190Z,27.32
2019-02-06T19:42:43.486Z,36.80
2019-02-06T19:48:47.836Z,30.27
2019-02-06T19:54:52.161Z,31.52
2019-02-06T20:00:56.724Z,35.08
2019-02-06T20:07:01.077Z,27.77
2019-02-06T20:13:12.270Z,34.20
2019-02-06T20:19:11.834Z,32.10
2019-02-06T20:25:16.922Z,32.55
2019-02-06T20:31:21.360Z,33.33
2019-02-06T20:37:25.884Z,27.05
2019-02-06T20:43:30.174Z,26.62
2019-02-06T20:49:34.562Z,24.50
2019-02-06T20:55:38.929Z,27.55
2019-02-06T21:01:43.164Z,24.85
2019-02-06T21:07:47.662Z,27.30
2019-02-06T21:13:52.286Z,21.20
2019-02-06T21:19:56.677Z,20.48
2019-02-06T21:26:01.114Z,21.17
2019-02-06T21:32:05.540Z,22.22
2019-02-06T21:38:10.060Z,17.37
2019-02-06T21:44:14.366Z,12.45
2019-02-06T21:50:22.895Z,12.93
2019-02-06T21:56:27.381Z,12.75
2019-02-06T22:02:31.800Z,8.35
2019-02-06T22:08:36.063Z,9.55
2019-02-06T22:14:40.441Z,9.85
2019-02-06T22:20:44.969Z,10.65
2019-02-06T22:26:49.268Z,7.83
2019-02-06T22:32:53.767Z,6.85
2019-02-06T22:38:58.409Z,8.00
2019-02-06T22:45:02.945Z,6.12
2019-02-06T22:51:07.322Z,8.23
2019-02-06T22:57:11.751Z,4.30
2019-02-06T23:03:19.359Z,5.75
2019-02-06T23:09:23.709Z,4.62
2019-02-06T23:15:28.041Z,7.67
2019-02-06T23:21:32.643Z,6.55
2019-02-06T23:27:36.935Z,4.42
2019-02-06T23:33:43.031Z,6.22
2019-02-06T23:39:47.885Z,4.75
2019-02-06T23:45:52.201Z,6.17
2019-02-06T23:51:56.418Z,4.72
2019-02-06T23:58:00.714Z,4.47
